sensor_id;sensor_type;location;lat;lon;timestamp;pressure;altitude;pressure_sealevel;temperature;humidity
58471;BME280;44258;51.288;12.068;2024-02-04T00:00:01;100923.41;;;11.22;80.39
58471;BME280;44258;51.288;12.068;2024-02-04T00:02:28;100909.88;;;11.41;79.05
58471;BME280;44258;51.288;12.068;2024-02-04T00:04:54;100907.19;;;11.41;79.03
58471;BME280;44258;51.288;12.068;2024-02-04T00:07:22;100917.09;;;11.41;78.73
58471;BME280;44258;51.288;12.068;2024-02-04T00:09:53;100918.94;;;11.40;78.34
58471;BME280;44258;51.288;12.068;2024-02-04T00:12:22;100914.19;;;11.09;79.51
58471;BME280;44258;51.288;12.068;2024-02-04T00:14:55;100911.97;;;11.00;78.42
58471;BME280;44258;51.288;12.068;2024-02-04T00:17:22;100899.69;;;11.11;78.37
58471;BME280;44258;51.288;12.068;2024-02-04T00:19:49;100896.19;;;11.09;77.46
58471;BME280;44258;51.288;12.068;2024-02-04T00:22:28;100908.06;;;11.05;76.73
58471;BME280;44258;51.288;12.068;2024-02-04T00:24:56;100905.56;;;10.83;76.97
58471;BME280;44258;51.288;12.068;2024-02-04T00:27:27;100904.88;;;10.97;76.30
58471;BME280;44258;51.288;12.068;2024-02-04T00:29:53;100904.22;;;11.11;75.61
58471;BME280;44258;51.288;12.068;2024-02-04T00:32:20;100911.13;;;11.17;75.08
58471;BME280;44258;51.288;12.068;2024-02-04T00:34:46;100916.94;;;11.26;74.32
58471;BME280;44258;51.288;12.068;2024-02-04T00:37:16;100902.31;;;11.13;74.28
58471;BME280;44258;51.288;12.068;2024-02-04T00:39:43;100905.81;;;11.15;74.67
58471;BME280;44258;51.288;12.068;2024-02-04T00:42:11;100892.09;;;11.20;74.63
58471;BME280;44258;51.288;12.068;2024-02-04T00:44:38;100895.94;;;11.33;74.53
58471;BME280;44258;51.288;12.068;2024-02-04T00:47:05;100882.34;;;11.36;74.44
58471;BME280;44258;51.288;12.068;2024-02-04T00:49:34;100880.13;;;11.44;74.13
58471;BME280;44258;51.288;12.068;2024-02-04T00:52:01;100879.81;;;11.50;73.72
58471;BME280;44258;51.288;12.068;2024-02-04T00:54:28;100880.59;;;11.52;73.78
58471;BME280;44258;51.288;12.068;2024-02-04T00:56:58;100883.84;;;11.59;73.37
58471;BME280;44258;51.288;12.068;2024-02-04T00:59:29;100884.97;;;11.55;73.70
58471;BME280;44258;51.288;12.068;2024-02-04T01:01:56;100883.66;;;11.62;73.66
58471;BME280;44258;51.288;12.068;2024-02-04T01:04:26;100893.19;;;11.52;74.21
58471;BME280;44258;51.288;12.068;2024-02-04T01:06:56;100891.66;;;11.29;75.85
58471;BME280;44258;51.288;12.068;2024-02-04T01:09:22;100887.31;;;11.44;75.55
58471;BME280;44258;51.288;12.068;2024-02-04T01:11:49;100868.00;;;11.53;75.14
58471;BME280;44258;51.288;12.068;2024-02-04T01:14:16;100873.72;;;11.47;75.58
58471;BME280;44258;51.288;12.068;2024-02-04T01:16:44;100878.22;;;11.46;75.79
58471;BME280;44258;51.288;12.068;2024-02-04T01:19:11;100865.53;;;11.31;76.79
58471;BME280;44258;51.288;12.068;2024-02-04T01:21:37;100867.06;;;11.37;76.42
58471;BME280;44258;51.288;12.068;2024-02-04T01:24:05;100862.19;;;11.26;76.78
58471;BME280;44258;51.288;12.068;2024-02-04T01:26:35;100861.41;;;11.24;76.81
58471;BME280;44258;51.288;12.068;2024-02-04T01:29:01;100860.28;;;11.28;77.01
58471;BME280;44258;51.288;12.068;2024-02-04T01:31:28;100877.44;;;11.44;76.06
58471;BME280;44258;51.288;12.068;2024-02-04T01:33:55;100869.34;;;11.44;76.13
58471;BME280;44258;51.288;12.068;2024-02-04T01:36:22;100883.91;;;11.23;76.78
58471;BME280;44258;51.288;12.068;2024-02-04T01:38:50;100869.28;;;11.09;78.17
58471;BME280;44258;51.288;12.068;2024-02-04T01:41:17;100872.44;;;11.37;76.59
58471;BME280;44258;51.288;12.068;2024-02-04T01:43:43;100868.00;;;11.53;75.83
58471;BME280;44258;51.288;12.068;2024-02-04T01:46:11;100870.44;;;11.58;75.75
58471;BME280;44258;51.288;12.068;2024-02-04T01:48:39;100857.47;;;11.66;75.51
58471;BME280;44258;51.288;12.068;2024-02-04T01:51:07;100859.09;;;11.68;74.96
58471;BME280;44258;51.288;12.068;2024-02-04T01:53:38;100866.06;;;11.72;75.36
58471;BME280;44258;51.288;12.068;2024-02-04T01:56:10;100879.78;;;11.68;75.62
58471;BME280;44258;51.288;12.068;2024-02-04T01:58:37;100873.22;;;11.56;76.16
58471;BME280;44258;51.288;12.068;2024-02-04T02:01:04;100881.31;;;11.39;77.49
58471;BME280;44258;51.288;12.068;2024-02-04T02:03:32;100881.63;;;11.32;78.23
58471;BME280;44258;51.288;12.068;2024-02-04T02:05:59;100890.31;;;11.20;79.14
58471;BME280;44258;51.288;12.068;2024-02-04T02:08:27;100873.31;;;11.37;77.92
58471;BME280;44258;51.288;12.068;2024-02-04T02:10:58;100871.56;;;11.36;77.59
58471;BME280;44258;51.288;12.068;2024-02-04T02:13:29;100874.88;;;11.41;77.45
58471;BME280;44258;51.288;12.068;2024-02-04T02:16:02;100870.56;;;11.20;78.55
58471;BME280;44258;51.288;12.068;2024-02-04T02:18:43;100864.38;;;11.00;79.49
58471;BME280;44258;51.288;12.068;2024-02-04T02:21:26;100862.94;;;10.93;79.81
58471;BME280;44258;51.288;12.068;2024-02-04T02:24:04;100862.66;;;10.61;82.01
58471;BME280;44258;51.288;12.068;2024-02-04T02:26:38;100865.72;;;10.91;80.56
58471;BME280;44258;51.288;12.068;2024-02-04T02:29:14;100869.69;;;11.02;79.63
58471;BME280;44258;51.288;12.068;2024-02-04T02:31:42;100858.38;;;11.12;79.23
58471;BME280;44258;51.288;12.068;2024-02-04T02:34:09;100860.03;;;11.15;79.12
58471;BME280;44258;51.288;12.068;2024-02-04T02:36:41;100855.34;;;11.01;79.39
58471;BME280;44258;51.288;12.068;2024-02-04T02:39:16;100863.94;;;10.90;79.50
58471;BME280;44258;51.288;12.068;2024-02-04T02:41:48;100852.81;;;10.98;79.38
58471;BME280;44258;51.288;12.068;2024-02-04T02:44:16;100858.22;;;10.98;79.72
58471;BME280;44258;51.288;12.068;2024-02-04T02:46:45;100865.66;;;11.10;78.57
58471;BME280;44258;51.288;12.068;2024-02-04T02:49:13;100859.78;;;11.02;78.80
58471;BME280;44258;51.288;12.068;2024-02-04T02:51:41;100860.28;;;11.10;77.87
58471;BME280;44258;51.288;12.068;2024-02-04T02:54:07;100869.88;;;11.16;77.48
58471;BME280;44258;51.288;12.068;2024-02-04T02:56:34;100873.81;;;11.09;77.73
58471;BME280;44258;51.288;12.068;2024-02-04T02:59:03;100873.25;;;11.02;77.83
58471;BME280;44258;51.288;12.068;2024-02-04T03:01:30;100872.69;;;10.96;78.11
58471;BME280;44258;51.288;12.068;2024-02-04T03:04:00;100861.81;;;10.97;78.25
58471;BME280;44258;51.288;12.068;2024-02-04T03:06:26;100852.47;;;10.87;78.16
58471;BME280;44258;51.288;12.068;2024-02-04T03:08:53;100848.34;;;10.80;79.37
58471;BME280;44258;51.288;12.068;2024-02-04T03:11:19;100864.41;;;10.81;79.22
58471;BME280;44258;51.288;12.068;2024-02-04T03:13:46;100840.69;;;10.89;78.64
58471;BME280;44258;51.288;12.068;2024-02-04T03:16:14;100843.78;;;10.99;78.09
58471;BME280;44258;51.288;12.068;2024-02-04T03:18:41;100836.19;;;11.07;77.49
58471;BME280;44258;51.288;12.068;2024-02-04T03:21:12;100834.97;;;11.14;76.72
58471;BME280;44258;51.288;12.068;2024-02-04T03:23:42;100832.03;;;11.02;76.98
58471;BME280;44258;51.288;12.068;2024-02-04T03:26:09;100829.41;;;11.18;76.95
58471;BME280;44258;51.288;12.068;2024-02-04T03:28:35;100839.16;;;11.20;76.42
58471;BME280;44258;51.288;12.068;2024-02-04T03:31:02;100822.47;;;11.31;76.31
58471;BME280;44258;51.288;12.068;2024-02-04T03:33:30;100823.09;;;11.36;75.57
58471;BME280;44258;51.288;12.068;2024-02-04T03:35:57;100815.56;;;11.25;75.75
58471;BME280;44258;51.288;12.068;2024-02-04T03:38:24;100821.25;;;11.19;76.53
58471;BME280;44258;51.288;12.068;2024-02-04T03:40:52;100813.59;;;11.29;76.02
58471;BME280;44258;51.288;12.068;2024-02-04T03:43:25;100799.09;;;11.31;75.78
58471;BME280;44258;51.288;12.068;2024-02-04T03:45:51;100801.72;;;11.33;75.75
58471;BME280;44258;51.288;12.068;2024-02-04T03:48:18;100805.38;;;11.32;75.44
58471;BME280;44258;51.288;12.068;2024-02-04T03:50:46;100809.63;;;11.19;76.63
58471;BME280;44258;51.288;12.068;2024-02-04T03:53:12;100806.03;;;11.01;77.73
58471;BME280;44258;51.288;12.068;2024-02-04T03:55:39;100803.38;;;11.18;77.00
58471;BME280;44258;51.288;12.068;2024-02-04T03:58:06;100808.59;;;11.21;76.84
58471;BME280;44258;51.288;12.068;2024-02-04T04:00:33;100797.28;;;11.14;77.15
58471;BME280;44258;51.288;12.068;2024-02-04T04:03:07;100814.69;;;11.25;76.55
58471;BME280;44258;51.288;12.068;2024-02-04T04:05:36;100827.59;;;11.35;76.00
58471;BME280;44258;51.288;12.068;2024-02-04T04:08:05;100809.25;;;11.26;76.38
58471;BME280;44258;51.288;12.068;2024-02-04T04:10:32;100824.75;;;11.21;76.84
58471;BME280;44258;51.288;12.068;2024-02-04T04:12:58;100817.69;;;11.19;77.12
58471;BME280;44258;51.288;12.068;2024-02-04T04:15:25;100833.13;;;11.15;77.51
58471;BME280;44258;51.288;12.068;2024-02-04T04:17:53;100820.63;;;11.14;77.22
58471;BME280;44258;51.288;12.068;2024-02-04T04:20:19;100823.81;;;11.22;77.13
58471;BME280;44258;51.288;12.068;2024-02-04T04:22:46;100819.91;;;11.28;77.04
58471;BME280;44258;51.288;12.068;2024-02-04T04:25:22;100827.59;;;11.18;77.21
58471;BME280;44258;51.288;12.068;2024-02-04T04:27:48;100831.72;;;11.25;76.92
58471;BME280;44258;51.288;12.068;2024-02-04T04:30:15;100836.00;;;11.29;77.04
58471;BME280;44258;51.288;12.068;2024-02-04T04:32:42;100833.38;;;11.28;77.10
58471;BME280;44258;51.288;12.068;2024-02-04T04:35:08;100824.56;;;11.07;78.49
58471;BME280;44258;51.288;12.068;2024-02-04T04:37:35;100827.38;;;11.23;78.13
58471;BME280;44258;51.288;12.068;2024-02-04T04:40:01;100818.81;;;11.14;78.53
58471;BME280;44258;51.288;12.068;2024-02-04T04:42:30;100819.69;;;11.32;77.95
58471;BME280;44258;51.288;12.068;2024-02-04T04:44:57;100812.00;;;11.42;76.98
58471;BME280;44258;51.288;12.068;2024-02-04T04:47:25;100812.94;;;11.41;76.90
58471;BME280;44258;51.288;12.068;2024-02-04T04:49:52;100808.09;;;11.48;76.76
58471;BME280;44258;51.288;12.068;2024-02-04T04:52:19;100798.91;;;11.52;76.76
58471;BME280;44258;51.288;12.068;2024-02-04T04:54:48;100786.34;;;11.52;76.49
58471;BME280;44258;51.288;12.068;2024-02-04T04:57:18;100793.38;;;11.55;76.21
58471;BME280;44258;51.288;12.068;2024-02-04T04:59:46;100795.03;;;11.58;76.24
58471;BME280;44258;51.288;12.068;2024-02-04T05:02:17;100796.41;;;11.49;76.80
58471;BME280;44258;51.288;12.068;2024-02-04T05:04:44;100775.66;;;11.51;77.03
58471;BME280;44258;51.288;12.068;2024-02-04T05:07:12;100773.28;;;11.45;77.59
58471;BME280;44258;51.288;12.068;2024-02-04T05:09:39;100767.56;;;11.51;77.34
58471;BME280;44258;51.288;12.068;2024-02-04T05:12:08;100759.63;;;11.48;77.48
58471;BME280;44258;51.288;12.068;2024-02-04T05:14:35;100758.78;;;11.47;77.59
58471;BME280;44258;51.288;12.068;2024-02-04T05:17:04;100761.31;;;11.50;77.61
58471;BME280;44258;51.288;12.068;2024-02-04T05:19:34;100765.81;;;11.50;77.75
58471;BME280;44258;51.288;12.068;2024-02-04T05:22:00;100766.13;;;11.44;77.90
58471;BME280;44258;51.288;12.068;2024-02-04T05:24:27;100764.34;;;11.44;78.11
58471;BME280;44258;51.288;12.068;2024-02-04T05:26:54;100752.91;;;11.39;78.34
58471;BME280;44258;51.288;12.068;2024-02-04T05:29:21;100747.22;;;11.45;78.20
58471;BME280;44258;51.288;12.068;2024-02-04T05:31:47;100750.41;;;11.36;78.81
58471;BME280;44258;51.288;12.068;2024-02-04T05:34:15;100739.63;;;11.36;78.82
58471;BME280;44258;51.288;12.068;2024-02-04T05:36:41;100737.09;;;11.33;79.21
58471;BME280;44258;51.288;12.068;2024-02-04T05:39:10;100731.84;;;11.47;78.76
58471;BME280;44258;51.288;12.068;2024-02-04T05:41:41;100731.06;;;11.28;79.50
58471;BME280;44258;51.288;12.068;2024-02-04T05:44:08;100725.28;;;11.35;79.29
58471;BME280;44258;51.288;12.068;2024-02-04T05:46:35;100719.50;;;11.43;78.88
58471;BME280;44258;51.288;12.068;2024-02-04T05:49:02;100720.59;;;11.39;78.92
58471;BME280;44258;51.288;12.068;2024-02-04T05:51:32;100715.75;;;11.12;79.70
58471;BME280;44258;51.288;12.068;2024-02-04T05:53:59;100715.34;;;11.20;80.50
58471;BME280;44258;51.288;12.068;2024-02-04T05:56:25;100709.06;;;11.20;80.07
58471;BME280;44258;51.288;12.068;2024-02-04T05:58:52;100702.03;;;11.17;79.32
58471;BME280;44258;51.288;12.068;2024-02-04T06:01:32;100716.63;;;10.96;81.10
58471;BME280;44258;51.288;12.068;2024-02-04T06:03:59;100696.34;;;11.06;80.94
58471;BME280;44258;51.288;12.068;2024-02-04T06:06:31;100693.66;;;11.06;80.88
58471;BME280;44258;51.288;12.068;2024-02-04T06:08:58;100697.84;;;11.11;80.51
58471;BME280;44258;51.288;12.068;2024-02-04T06:11:24;100694.81;;;11.18;80.28
58471;BME280;44258;51.288;12.068;2024-02-04T06:13:51;100699.59;;;11.12;80.47
58471;BME280;44258;51.288;12.068;2024-02-04T06:16:22;100695.38;;;11.07;80.65
58471;BME280;44258;51.288;12.068;2024-02-04T06:18:48;100695.59;;;11.20;80.17
58471;BME280;44258;51.288;12.068;2024-02-04T06:21:15;100695.91;;;11.31;79.49
58471;BME280;44258;51.288;12.068;2024-02-04T06:23:43;100673.75;;;11.26;79.58
58471;BME280;44258;51.288;12.068;2024-02-04T06:26:09;100682.31;;;11.34;79.37
58471;BME280;44258;51.288;12.068;2024-02-04T06:28:36;100677.28;;;11.10;80.13
58471;BME280;44258;51.288;12.068;2024-02-04T06:31:08;100688.03;;;11.10;80.39
58471;BME280;44258;51.288;12.068;2024-02-04T06:33:36;100697.38;;;11.21;80.28
58471;BME280;44258;51.288;12.068;2024-02-04T06:36:02;100710.28;;;11.14;80.04
58471;BME280;44258;51.288;12.068;2024-02-04T06:38:29;100712.00;;;11.15;80.29
58471;BME280;44258;51.288;12.068;2024-02-04T06:40:58;100709.06;;;11.20;80.02
58471;BME280;44258;51.288;12.068;2024-02-04T06:43:26;100719.22;;;11.32;79.15
58471;BME280;44258;51.288;12.068;2024-02-04T06:45:53;100714.38;;;11.39;79.11
58471;BME280;44258;51.288;12.068;2024-02-04T06:48:20;100710.88;;;11.37;79.18
58471;BME280;44258;51.288;12.068;2024-02-04T06:50:47;100706.81;;;11.45;78.45
58471;BME280;44258;51.288;12.068;2024-02-04T06:53:14;100708.25;;;11.35;78.94
58471;BME280;44258;51.288;12.068;2024-02-04T06:55:40;100704.78;;;11.15;80.11
58471;BME280;44258;51.288;12.068;2024-02-04T06:58:08;100707.81;;;11.09;80.19
58471;BME280;44258;51.288;12.068;2024-02-04T07:00:35;100701.31;;;11.13;80.83
58471;BME280;44258;51.288;12.068;2024-02-04T07:03:01;100703.84;;;11.17;80.40
58471;BME280;44258;51.288;12.068;2024-02-04T07:05:32;100708.19;;;11.19;80.31
58471;BME280;44258;51.288;12.068;2024-02-04T07:07:59;100699.25;;;11.36;79.62
58471;BME280;44258;51.288;12.068;2024-02-04T07:10:25;100712.72;;;11.19;80.27
58471;BME280;44258;51.288;12.068;2024-02-04T07:12:52;100720.34;;;11.10;81.00
58471;BME280;44258;51.288;12.068;2024-02-04T07:15:24;100711.22;;;11.13;81.05
58471;BME280;44258;51.288;12.068;2024-02-04T07:17:54;100721.78;;;11.33;79.89
58471;BME280;44258;51.288;12.068;2024-02-04T07:20:20;100716.81;;;11.26;80.15
58471;BME280;44258;51.288;12.068;2024-02-04T07:22:47;100721.91;;;11.32;79.74
58471;BME280;44258;51.288;12.068;2024-02-04T07:25:14;100720.47;;;11.07;81.87
58471;BME280;44258;51.288;12.068;2024-02-04T07:27:40;100716.47;;;11.16;81.31
58471;BME280;44258;51.288;12.068;2024-02-04T07:30:08;100718.50;;;11.11;81.87
58471;BME280;44258;51.288;12.068;2024-02-04T07:32:37;100729.00;;;11.33;80.34
58471;BME280;44258;51.288;12.068;2024-02-04T07:35:05;100714.38;;;11.39;80.23
58471;BME280;44258;51.288;12.068;2024-02-04T07:37:35;100713.41;;;11.40;79.84
58471;BME280;44258;51.288;12.068;2024-02-04T07:40:02;100722.19;;;11.26;81.39
58471;BME280;44258;51.288;12.068;2024-02-04T07:42:30;100723.09;;;11.26;81.45
58471;BME280;44258;51.288;12.068;2024-02-04T07:44:57;100718.44;;;11.30;81.58
58471;BME280;44258;51.288;12.068;2024-02-04T07:47:27;100704.00;;;11.31;81.19
58471;BME280;44258;51.288;12.068;2024-02-04T07:49:56;100690.06;;;11.40;80.60
58471;BME280;44258;51.288;12.068;2024-02-04T07:52:23;100688.03;;;11.44;80.61
58471;BME280;44258;51.288;12.068;2024-02-04T07:54:49;100703.06;;;11.32;81.64
58471;BME280;44258;51.288;12.068;2024-02-04T07:57:16;100711.44;;;11.26;82.34
58471;BME280;44258;51.288;12.068;2024-02-04T07:59:43;100707.66;;;11.12;83.26
58471;BME280;44258;51.288;12.068;2024-02-04T08:02:09;100711.44;;;11.26;82.73
58471;BME280;44258;51.288;12.068;2024-02-04T08:04:36;100705.13;;;11.27;82.47
58471;BME280;44258;51.288;12.068;2024-02-04T08:07:04;100711.53;;;11.24;82.02
58471;BME280;44258;51.288;12.068;2024-02-04T08:09:30;100721.59;;;11.38;82.09
58471;BME280;44258;51.288;12.068;2024-02-04T08:11:57;100722.81;;;11.48;81.47
58471;BME280;44258;51.288;12.068;2024-02-04T08:14:24;100721.94;;;11.48;81.46
58471;BME280;44258;51.288;12.068;2024-02-04T08:16:57;100718.44;;;11.30;82.33
58471;BME280;44258;51.288;12.068;2024-02-04T08:19:29;100711.22;;;11.30;82.35
58471;BME280;44258;51.288;12.068;2024-02-04T08:21:56;100700.38;;;11.48;81.12
58471;BME280;44258;51.288;12.068;2024-02-04T08:24:26;100708.25;;;11.52;81.12
58471;BME280;44258;51.288;12.068;2024-02-04T08:26:54;100702.88;;;11.68;80.33
58471;BME280;44258;51.288;12.068;2024-02-04T08:29:24;100707.06;;;11.74;80.10
58471;BME280;44258;51.288;12.068;2024-02-04T08:31:52;100704.53;;;11.71;80.49
58471;BME280;44258;51.288;12.068;2024-02-04T08:34:19;100695.16;;;11.78;80.02
58471;BME280;44258;51.288;12.068;2024-02-04T08:36:49;100697.28;;;11.55;81.01
58471;BME280;44258;51.288;12.068;2024-02-04T08:39:17;100695.22;;;11.77;80.38
58471;BME280;44258;51.288;12.068;2024-02-04T08:41:45;100680.91;;;11.92;78.87
58471;BME280;44258;51.288;12.068;2024-02-04T08:44:12;100697.53;;;12.00;78.58
58471;BME280;44258;51.288;12.068;2024-02-04T08:46:39;100688.84;;;11.95;79.03
58471;BME280;44258;51.288;12.068;2024-02-04T08:49:08;100683.69;;;11.90;79.17
58471;BME280;44258;51.288;12.068;2024-02-04T08:51:35;100678.28;;;11.90;79.03
58471;BME280;44258;51.288;12.068;2024-02-04T08:54:04;100681.69;;;11.94;78.67
58471;BME280;44258;51.288;12.068;2024-02-04T08:56:31;100696.84;;;12.12;77.74
58471;BME280;44258;51.288;12.068;2024-02-04T08:59:00;100691.97;;;12.03;77.86
58471;BME280;44258;51.288;12.068;2024-02-04T09:01:27;100695.59;;;12.02;77.97
58471;BME280;44258;51.288;12.068;2024-02-04T09:03:54;100701.72;;;12.06;77.40
58471;BME280;44258;51.288;12.068;2024-02-04T09:06:20;100698.84;;;12.09;77.25
58471;BME280;44258;51.288;12.068;2024-02-04T09:08:47;100692.84;;;12.04;77.21
58471;BME280;44258;51.288;12.068;2024-02-04T09:11:13;100690.03;;;11.89;78.15
58471;BME280;44258;51.288;12.068;2024-02-04T09:13:44;100689.94;;;11.91;78.31
58471;BME280;44258;51.288;12.068;2024-02-04T09:16:12;100695.06;;;11.80;79.05
58471;BME280;44258;51.288;12.068;2024-02-04T09:18:38;100689.94;;;11.91;78.65
58471;BME280;44258;51.288;12.068;2024-02-04T09:21:07;100677.78;;;11.84;79.44
58471;BME280;44258;51.288;12.068;2024-02-04T09:23:33;100665.59;;;11.92;79.24
58471;BME280;44258;51.288;12.068;2024-02-04T09:26:00;100668.22;;;11.94;78.83
58471;BME280;44258;51.288;12.068;2024-02-04T09:28:27;100682.47;;;11.96;79.08
58471;BME280;44258;51.288;12.068;2024-02-04T09:30:59;100674.91;;;12.03;78.21
58471;BME280;44258;51.288;12.068;2024-02-04T09:33:30;100663.56;;;12.13;77.89
58471;BME280;44258;51.288;12.068;2024-02-04T09:35:57;100661.19;;;12.23;77.72
58471;BME280;44258;51.288;12.068;2024-02-04T09:38:27;100662.25;;;12.21;77.48
58471;BME280;44258;51.288;12.068;2024-02-04T09:40:55;100665.44;;;12.27;77.63
58471;BME280;44258;51.288;12.068;2024-02-04T09:43:23;100660.50;;;12.04;78.94
58471;BME280;44258;51.288;12.068;2024-02-04T09:45:53;100658.53;;;12.07;78.90
58471;BME280;44258;51.288;12.068;2024-02-04T09:48:20;100656.59;;;11.93;79.56
58471;BME280;44258;51.288;12.068;2024-02-04T09:50:51;100667.75;;;11.70;81.08
58471;BME280;44258;51.288;12.068;2024-02-04T09:53:31;100668.09;;;11.64;80.99
58471;BME280;44258;51.288;12.068;2024-02-04T09:55:59;100664.28;;;11.68;80.96
58471;BME280;44258;51.288;12.068;2024-02-04T09:58:27;100669.41;;;11.72;81.01
58471;BME280;44258;51.288;12.068;2024-02-04T10:00:57;100655.72;;;11.77;80.99
58471;BME280;44258;51.288;12.068;2024-02-04T10:03:25;100649.97;;;11.99;79.92
58471;BME280;44258;51.288;12.068;2024-02-04T10:05:53;100651.88;;;11.97;80.50
58471;BME280;44258;51.288;12.068;2024-02-04T10:08:20;100654.13;;;12.05;80.25
58471;BME280;44258;51.288;12.068;2024-02-04T10:10:47;100641.91;;;11.99;80.07
58471;BME280;44258;51.288;12.068;2024-02-04T10:13:21;100631.38;;;12.10;80.08
58471;BME280;44258;51.288;12.068;2024-02-04T10:15:50;100636.38;;;12.01;80.24
58471;BME280;44258;51.288;12.068;2024-02-04T10:18:21;100626.59;;;12.00;80.13
58471;BME280;44258;51.288;12.068;2024-02-04T10:20:47;100621.63;;;12.24;78.88
58471;BME280;44258;51.288;12.068;2024-02-04T10:23:15;100621.19;;;12.00;79.85
58471;BME280;44258;51.288;12.068;2024-02-04T10:25:42;100623.91;;;12.16;78.99
58471;BME280;44258;51.288;12.068;2024-02-04T10:28:09;100618.19;;;12.06;78.99
58471;BME280;44258;51.288;12.068;2024-02-04T10:30:37;100620.56;;;11.94;78.68
58471;BME280;44258;51.288;12.068;2024-02-04T10:33:04;100615.53;;;11.88;79.00
58471;BME280;44258;51.288;12.068;2024-02-04T10:35:31;100592.69;;;12.11;78.27
58471;BME280;44258;51.288;12.068;2024-02-04T10:38:01;100584.94;;;11.89;78.21
58471;BME280;44258;51.288;12.068;2024-02-04T10:40:29;100597.53;;;11.89;79.37
58471;BME280;44258;51.288;12.068;2024-02-04T10:43:04;100592.59;;;11.97;78.73
58471;BME280;44258;51.288;12.068;2024-02-04T10:45:32;100585.28;;;11.99;78.75
58471;BME280;44258;51.288;12.068;2024-02-04T10:48:04;100598.09;;;12.11;78.35
58471;BME280;44258;51.288;12.068;2024-02-04T10:50:34;100583.63;;;12.12;77.58
58471;BME280;44258;51.288;12.068;2024-02-04T10:53:04;100588.59;;;11.88;78.54
58471;BME280;44258;51.288;12.068;2024-02-04T10:55:41;100585.28;;;11.51;79.94
58471;BME280;44258;51.288;12.068;2024-02-04T10:58:09;100595.66;;;11.75;79.39
58471;BME280;44258;51.288;12.068;2024-02-04T11:00:39;100590.00;;;11.80;79.12
58471;BME280;44258;51.288;12.068;2024-02-04T11:03:06;100584.94;;;11.58;80.79
58471;BME280;44258;51.288;12.068;2024-02-04T11:05:36;100594.25;;;11.68;79.92
58471;BME280;44258;51.288;12.068;2024-02-04T11:08:05;100589.38;;;11.74;79.35
58471;BME280;44258;51.288;12.068;2024-02-04T11:10:33;100580.16;;;11.94;78.56
58471;BME280;44258;51.288;12.068;2024-02-04T11:13:04;100571.66;;;11.70;78.92
58471;BME280;44258;51.288;12.068;2024-02-04T11:15:36;100561.69;;;11.57;79.26
58471;BME280;44258;51.288;12.068;2024-02-04T11:18:30;100569.13;;;11.51;79.57
58471;BME280;44258;51.288;12.068;2024-02-04T11:21:18;100569.06;;;11.53;79.08
58471;BME280;44258;51.288;12.068;2024-02-04T11:24:02;100564.53;;;11.53;78.86
58471;BME280;44258;51.288;12.068;2024-02-04T11:26:35;100573.41;;;11.87;77.33
58471;BME280;44258;51.288;12.068;2024-02-04T11:29:07;100562.84;;;11.83;77.30
58471;BME280;44258;51.288;12.068;2024-02-04T11:31:38;100563.81;;;11.98;76.66
58471;BME280;44258;51.288;12.068;2024-02-04T11:34:05;100562.06;;;11.97;75.57
58471;BME280;44258;51.288;12.068;2024-02-04T11:36:37;100559.28;;;11.98;75.81
58471;BME280;44258;51.288;12.068;2024-02-04T11:39:11;100554.75;;;11.99;75.31
58471;BME280;44258;51.288;12.068;2024-02-04T11:41:44;100556.50;;;12.16;75.01
58471;BME280;44258;51.288;12.068;2024-02-04T11:44:19;100556.50;;;12.16;74.53
58471;BME280;44258;51.288;12.068;2024-02-04T11:46:49;100558.78;;;12.07;75.43
58471;BME280;44258;51.288;12.068;2024-02-04T11:49:17;100556.75;;;12.11;75.73
58471;BME280;44258;51.288;12.068;2024-02-04T11:51:46;100558.06;;;12.04;76.17
58471;BME280;44258;51.288;12.068;2024-02-04T11:54:14;100550.91;;;12.03;75.99
58471;BME280;44258;51.288;12.068;2024-02-04T11:56:42;100541.66;;;11.77;78.04
58471;BME280;44258;51.288;12.068;2024-02-04T11:59:09;100547.75;;;11.80;78.76
58471;BME280;44258;51.288;12.068;2024-02-04T12:01:39;100547.41;;;11.70;79.07
58471;BME280;44258;51.288;12.068;2024-02-04T12:04:10;100546.53;;;11.86;78.40
58471;BME280;44258;51.288;12.068;2024-02-04T12:06:37;100549.16;;;11.87;78.93
58471;BME280;44258;51.288;12.068;2024-02-04T12:09:03;100552.69;;;11.88;78.63
58471;BME280;44258;51.288;12.068;2024-02-04T12:11:32;100568.16;;;11.84;79.90
58471;BME280;44258;51.288;12.068;2024-02-04T12:14:00;100576.38;;;11.67;80.66
58471;BME280;44258;51.288;12.068;2024-02-04T12:16:27;100575.66;;;11.47;82.38
58471;BME280;44258;51.288;12.068;2024-02-04T12:18:55;100568.53;;;11.46;82.21
58471;BME280;44258;51.288;12.068;2024-02-04T12:21:22;100561.66;;;11.25;83.10
58471;BME280;44258;51.288;12.068;2024-02-04T12:23:49;100550.13;;;11.54;81.45
58471;BME280;44258;51.288;12.068;2024-02-04T12:26:17;100556.09;;;11.28;82.19
58471;BME280;44258;51.288;12.068;2024-02-04T12:28:46;100542.63;;;11.28;80.88
58471;BME280;44258;51.288;12.068;2024-02-04T12:31:17;100550.38;;;11.50;79.22
58471;BME280;44258;51.288;12.068;2024-02-04T12:33:52;100546.09;;;11.46;78.96
58471;BME280;44258;51.288;12.068;2024-02-04T12:36:27;100541.16;;;11.70;77.63
58471;BME280;44258;51.288;12.068;2024-02-04T12:38:54;100520.44;;;11.86;76.48
58471;BME280;44258;51.288;12.068;2024-02-04T12:41:21;100536.75;;;11.69;76.41
58471;BME280;44258;51.288;12.068;2024-02-04T12:43:52;100531.06;;;11.73;75.23
58471;BME280;44258;51.288;12.068;2024-02-04T12:46:19;100550.91;;;11.57;75.40